createdAt,value
2018-02-17T00:02:04.499Z,2.80
2018-02-17T00:04:32.111Z,2.80
2018-02-17T00:06:59.674Z,2.90
2018-02-17T00:09:27.235Z,2.80
2018-02-17T00:11:54.819Z,2.80
2018-02-17T00:14:22.439Z,2.90
2018-02-17T00:16:49.987Z,2.80
2018-02-17T00:19:17.504Z,2.80
2018-02-17T00:21:45.062Z,2.80
2018-02-17T00:24:12.646Z,2.80
2018-02-17T00:26:40.154Z,2.70
2018-02-17T00:29:08.547Z,2.60
2018-02-17T00:31:36.050Z,2.60
2018-02-17T00:34:03.604Z,2.70
2018-02-17T00:36:31.117Z,2.60
2018-02-17T00:38:58.627Z,2.60
2018-02-17T00:41:26.160Z,2.60
2018-02-17T00:43:54.436Z,2.60
2018-02-17T00:46:22.056Z,2.60
2018-02-17T00:48:49.578Z,2.50
2018-02-17T00:51:17.112Z,2.40
2018-02-17T00:53:44.618Z,2.40
2018-02-17T00:56:12.268Z,2.40
2018-02-17T00:58:39.835Z,2.40
2018-02-17T01:01:07.370Z,2.50
2018-02-17T01:03:34.884Z,2.50
2018-02-17T01:06:02.476Z,2.50
2018-02-17T01:08:30.767Z,2.40
2018-02-17T01:10:58.279Z,2.40
2018-02-17T01:13:25.790Z,2.40
2018-02-17T01:15:54.072Z,2.40
2018-02-17T01:18:21.586Z,2.30
2018-02-17T01:20:49.130Z,2.30
2018-02-17T01:23:16.693Z,2.40
2018-02-17T01:25:44.231Z,2.30
2018-02-17T01:28:11.723Z,2.30
2018-02-17T01:30:39.254Z,2.40
2018-02-17T01:33:06.816Z,2.40
2018-02-17T01:35:34.321Z,2.40
2018-02-17T01:38:01.901Z,2.40
2018-02-17T01:40:30.181Z,2.40
2018-02-17T01:42:58.483Z,2.50
2018-02-17T01:45:26.008Z,2.50
2018-02-17T01:47:54.308Z,2.40
2018-02-17T01:50:32.780Z,2.40
2018-02-17T01:53:00.308Z,2.40
2018-02-17T01:55:27.827Z,2.40
2018-02-17T01:57:55.342Z,2.30
2018-02-17T02:00:22.897Z,2.40
2018-02-17T02:02:50.450Z,2.40
2018-02-17T02:05:17.996Z,2.40
2018-02-17T02:07:45.571Z,2.40
2018-02-17T02:10:13.092Z,2.40
2018-02-17T02:12:41.478Z,2.50
2018-02-17T02:15:09.058Z,2.50
2018-02-17T02:17:36.691Z,2.50
2018-02-17T02:20:05.025Z,2.50
2018-02-17T02:22:32.654Z,2.50
2018-02-17T02:25:00.184Z,2.60
2018-02-17T02:27:27.682Z,2.60
2018-02-17T02:29:55.209Z,2.60
2018-02-17T02:32:23.546Z,2.70
2018-02-17T02:34:51.048Z,2.70
2018-02-17T02:37:18.548Z,2.70
2018-02-17T02:39:46.074Z,2.80
2018-02-17T02:42:14.337Z,2.90
2018-02-17T02:44:42.616Z,2.90
2018-02-17T02:47:10.912Z,2.90
2018-02-17T02:49:38.424Z,2.90
2018-02-17T02:52:05.986Z,3.00
2018-02-17T02:54:33.514Z,3.10
2018-02-17T02:57:01.119Z,3.10
2018-02-17T02:59:28.622Z,3.20
2018-02-17T03:01:56.132Z,3.30
2018-02-17T03:04:23.656Z,3.30
2018-02-17T03:06:51.181Z,3.20
2018-02-17T03:09:19.459Z,3.30
2018-02-17T03:11:47.721Z,3.10
2018-02-17T03:14:16.011Z,3.10
2018-02-17T03:16:44.273Z,3.30
2018-02-17T03:19:11.788Z,3.30
2018-02-17T03:21:39.355Z,3.30
2018-02-17T03:24:06.852Z,3.20
2018-02-17T03:26:35.151Z,3.30
2018-02-17T03:29:03.464Z,3.30
2018-02-17T03:31:30.979Z,3.30
2018-02-17T03:33:58.533Z,3.30
2018-02-17T03:36:26.949Z,3.30
2018-02-17T03:38:54.451Z,3.20
2018-02-17T03:41:22.778Z,3.20
2018-02-17T03:43:50.288Z,3.20
2018-02-17T03:46:17.804Z,3.30
2018-02-17T03:48:45.303Z,3.40
2018-02-17T03:51:12.818Z,3.40
2018-02-17T03:53:40.327Z,3.40
2018-02-17T03:56:07.857Z,3.40
2018-02-17T03:58:35.379Z,3.40
2018-02-17T04:01:02.913Z,3.40
2018-02-17T04:03:30.612Z,3.40
2018-02-17T04:05:58.142Z,3.40
2018-02-17T04:08:26.464Z,3.40
2018-02-17T04:10:53.967Z,3.40
2018-02-17T04:13:21.505Z,3.40
2018-02-17T04:15:49.031Z,3.50
2018-02-17T04:18:16.525Z,3.40
2018-02-17T04:20:44.061Z,3.40
2018-02-17T04:23:11.595Z,3.30
2018-02-17T04:25:39.137Z,3.30
2018-02-17T04:28:06.676Z,3.30
2018-02-17T04:30:34.270Z,3.20
2018-02-17T04:33:01.927Z,3.20
2018-02-17T04:35:29.454Z,3.20
2018-02-17T04:37:57.063Z,3.10
2018-02-17T04:40:26.238Z,3.30
2018-02-17T04:43:13.418Z,3.60
2018-02-17T04:45:46.543Z,3.50
2018-02-17T04:48:25.332Z,3.30
2018-02-17T04:51:09.518Z,3.30
2018-02-17T04:56:49.153Z,3.30
2018-02-17T04:59:32.466Z,3.40
2018-02-17T05:02:14.896Z,3.20
2018-02-17T05:04:42.413Z,3.30
2018-02-17T05:07:12.428Z,3.30
2018-02-17T05:09:40.096Z,3.30
2018-02-17T05:12:07.632Z,3.40
2018-02-17T05:14:38.705Z,3.40
2018-02-17T05:17:12.002Z,3.50
2018-02-17T05:19:45.241Z,3.50
2018-02-17T05:22:23.558Z,3.50
2018-02-17T05:24:51.110Z,3.50
2018-02-17T05:27:19.506Z,3.60
2018-02-17T05:29:52.599Z,3.70
2018-02-17T05:32:23.672Z,3.70
2018-02-17T05:34:57.863Z,3.70
2018-02-17T05:37:25.358Z,3.70
2018-02-17T05:40:08.657Z,3.60
2018-02-17T05:42:46.060Z,3.60
2018-02-17T05:45:15.520Z,3.80
2018-02-17T05:47:46.986Z,3.80
2018-02-17T05:50:17.069Z,3.60
2018-02-17T05:52:44.600Z,3.60
2018-02-17T05:55:12.099Z,3.60
2018-02-17T05:57:39.631Z,3.50
2018-02-17T06:00:07.144Z,3.40
2018-02-17T06:02:34.646Z,3.40
2018-02-17T06:05:02.144Z,3.40
2018-02-17T06:07:29.658Z,3.50
2018-02-17T06:09:57.297Z,3.30
2018-02-17T06:12:24.858Z,3.30
2018-02-17T06:14:52.390Z,3.40
2018-02-17T06:17:19.903Z,3.50
2018-02-17T06:19:47.426Z,3.50
2018-02-17T06:22:14.970Z,3.50
2018-02-17T06:24:42.509Z,3.50
2018-02-17T06:27:10.079Z,3.60
2018-02-17T06:29:37.602Z,3.60
2018-02-17T06:32:05.121Z,3.60
2018-02-17T06:34:32.642Z,3.50
2018-02-17T06:37:00.282Z,3.70
2018-02-17T06:39:27.820Z,3.70
2018-02-17T06:41:55.332Z,3.80
2018-02-17T06:44:23.668Z,3.60
2018-02-17T06:46:51.171Z,3.70
2018-02-17T06:49:18.755Z,3.60
2018-02-17T06:51:46.264Z,3.60
2018-02-17T06:54:13.770Z,3.70
2018-02-17T06:56:41.303Z,3.80
2018-02-17T06:59:09.628Z,4.00
2018-02-17T07:01:37.138Z,4.00
2018-02-17T07:04:04.640Z,4.00
2018-02-17T07:06:32.183Z,4.10
2018-02-17T07:08:59.692Z,4.10
2018-02-17T07:11:27.227Z,4.10
2018-02-17T07:13:54.734Z,4.20
2018-02-17T07:16:23.012Z,4.20
2018-02-17T07:18:51.299Z,4.30
2018-02-17T07:21:19.589Z,4.20
2018-02-17T07:23:47.104Z,4.20
2018-02-17T07:26:14.629Z,4.00
2018-02-17T07:28:42.157Z,4.00
2018-02-17T07:31:10.471Z,4.20
2018-02-17T07:33:37.982Z,4.20
2018-02-17T07:36:05.510Z,4.30
2018-02-17T07:38:33.802Z,4.40
2018-02-17T07:41:01.344Z,4.30
2018-02-17T07:43:28.858Z,4.40
2018-02-17T07:45:56.377Z,4.30
2018-02-17T07:48:23.878Z,4.50
2018-02-17T07:50:51.436Z,4.60
2018-02-17T07:53:18.963Z,4.60
2018-02-17T07:55:46.474Z,4.70
2018-02-17T07:58:13.992Z,4.60
2018-02-17T08:00:41.514Z,4.60
2018-02-17T08:03:09.115Z,4.60
2018-02-17T08:05:36.639Z,4.60
2018-02-17T08:08:04.169Z,4.70
2018-02-17T08:10:31.722Z,4.80
2018-02-17T08:12:59.244Z,4.80
2018-02-17T08:15:26.762Z,4.80
2018-02-17T08:17:54.286Z,4.80
2018-02-17T08:20:21.828Z,4.90
2018-02-17T08:22:50.247Z,5.10
2018-02-17T08:25:17.753Z,5.00
2018-02-17T08:27:45.296Z,5.20
2018-02-17T08:30:12.850Z,5.10
2018-02-17T08:32:40.406Z,5.00
2018-02-17T08:35:07.931Z,5.00
2018-02-17T08:37:35.474Z,5.00
2018-02-17T08:40:03.781Z,5.00
2018-02-17T08:42:31.318Z,4.90
2018-02-17T08:44:58.847Z,4.90
2018-02-17T08:47:26.399Z,4.90
2018-02-17T08:49:54.129Z,4.80
2018-02-17T08:52:21.645Z,4.90
2018-02-17T08:54:49.943Z,4.80
2018-02-17T08:57:19.427Z,4.80
2018-02-17T08:59:47.057Z,4.90
2018-02-17T09:02:14.595Z,5.00
2018-02-17T09:04:42.083Z,5.10
2018-02-17T09:07:09.648Z,4.90
2018-02-17T09:09:37.209Z,5.00
2018-02-17T09:12:04.736Z,5.20
2018-02-17T09:14:32.320Z,5.20
2018-02-17T09:16:59.855Z,5.20
2018-02-17T09:19:27.371Z,5.20
2018-02-17T09:21:55.677Z,5.40
2018-02-17T09:24:23.179Z,5.40
2018-02-17T09:26:53.515Z,5.50
2018-02-17T09:29:21.166Z,5.60
2018-02-17T09:31:48.920Z,5.80
2018-02-17T09:34:16.518Z,5.90
2018-02-17T09:36:44.811Z,6.20
2018-02-17T09:39:12.359Z,6.20
2018-02-17T09:41:40.640Z,6.40
2018-02-17T09:44:08.988Z,6.60
2018-02-17T09:46:36.687Z,6.50
2018-02-17T09:49:04.219Z,6.70
2018-02-17T09:51:31.804Z,6.80
2018-02-17T09:53:59.416Z,6.80
2018-02-17T09:56:26.931Z,6.80
2018-02-17T09:58:55.207Z,7.00
2018-02-17T10:01:22.865Z,7.00
2018-02-17T10:03:51.239Z,6.90
2018-02-17T10:06:19.598Z,7.00
2018-02-17T10:08:47.260Z,6.90
2018-02-17T10:11:14.772Z,7.00
2018-02-17T10:13:42.309Z,7.10
2018-02-17T10:16:09.960Z,7.20
2018-02-17T10:18:38.385Z,7.30
2018-02-17T10:21:05.902Z,7.30
2018-02-17T10:23:34.212Z,7.40
2018-02-17T10:26:01.744Z,7.30
2018-02-17T10:28:29.297Z,7.40
2018-02-17T10:30:57.621Z,7.50
2018-02-17T10:33:25.138Z,7.50
2018-02-17T10:35:52.676Z,7.40
2018-02-17T10:38:20.218Z,7.30
2018-02-17T10:40:47.758Z,7.20
2018-02-17T10:43:15.411Z,7.20
2018-02-17T10:45:42.928Z,7.30
2018-02-17T10:48:11.206Z,7.10
2018-02-17T10:50:39.558Z,7.20
2018-02-17T10:53:07.054Z,7.20
2018-02-17T10:55:37.254Z,7.60
2018-02-17T10:58:04.783Z,7.50
2018-02-17T11:00:32.289Z,7.80
2018-02-17T11:03:00.583Z,8.00
2018-02-17T11:05:28.147Z,8.00
2018-02-17T11:07:55.743Z,8.10
2018-02-17T11:10:23.268Z,8.10
2018-02-17T11:12:50.829Z,8.20
2018-02-17T11:15:18.391Z,8.20
2018-02-17T11:17:45.925Z,8.30
2018-02-17T11:20:13.451Z,8.30
2018-02-17T11:22:40.956Z,8.30
2018-02-17T11:25:08.554Z,8.30
2018-02-17T11:27:36.079Z,8.40
2018-02-17T11:30:03.647Z,8.20
2018-02-17T11:32:31.158Z,8.10
2018-02-17T11:34:58.668Z,8.10
2018-02-17T11:37:26.188Z,8.20
2018-02-17T11:39:53.698Z,8.20
2018-02-17T11:42:21.203Z,8.30
2018-02-17T11:44:48.731Z,8.00
2018-02-17T11:47:16.317Z,7.90
2018-02-17T11:49:43.835Z,8.00
2018-02-17T11:52:11.344Z,8.10
2018-02-17T11:54:38.863Z,8.10
2018-02-17T11:57:06.419Z,8.20
2018-02-17T11:59:33.953Z,8.30
2018-02-17T12:02:01.640Z,8.30
2018-02-17T12:04:29.146Z,8.30
2018-02-17T12:06:56.654Z,8.30
2018-02-17T12:09:24.203Z,8.30
2018-02-17T12:11:51.730Z,8.20
2018-02-17T12:14:20.012Z,8.40
2018-02-17T12:16:48.318Z,8.40
2018-02-17T12:19:15.850Z,8.30
2018-02-17T12:21:45.133Z,8.30
2018-02-17T12:24:12.649Z,8.30
2018-02-17T12:26:40.184Z,8.40
2018-02-17T12:29:07.765Z,8.30
2018-02-17T12:31:35.294Z,8.30
2018-02-17T12:34:03.561Z,8.10
2018-02-17T12:36:31.068Z,8.10
2018-02-17T12:38:58.581Z,8.10
2018-02-17T12:41:26.157Z,8.10
2018-02-17T12:43:54.523Z,7.90
2018-02-17T12:46:22.023Z,7.90
2018-02-17T12:48:49.547Z,7.70
2018-02-17T12:51:17.822Z,7.70
2018-02-17T12:53:46.287Z,7.70
2018-02-17T12:56:13.952Z,7.70
2018-02-17T12:58:41.670Z,7.80
2018-02-17T13:01:09.411Z,8.00
2018-02-17T13:03:36.981Z,8.10
2018-02-17T13:06:04.617Z,8.10
2018-02-17T13:08:32.400Z,8.20
2018-02-17T13:11:00.061Z,7.50
2018-02-17T13:13:27.646Z,7.30
2018-02-17T13:15:55.984Z,7.30
2018-02-17T13:18:23.604Z,7.30
2018-02-17T13:20:51.136Z,7.00
2018-02-17T13:23:18.782Z,6.70
2018-02-17T13:25:46.287Z,6.70
2018-02-17T13:28:25.641Z,6.80
2018-02-17T13:30:53.262Z,6.90
2018-02-17T13:33:20.833Z,7.00
2018-02-17T13:35:48.349Z,6.90
2018-02-17T13:38:15.839Z,6.90
2018-02-17T13:40:43.358Z,6.90
2018-02-17T13:43:11.624Z,6.70
2018-02-17T13:45:39.129Z,6.60
2018-02-17T13:48:06.651Z,6.60
2018-02-17T13:50:34.172Z,6.60
2018-02-17T13:53:01.700Z,6.80
2018-02-17T13:55:29.244Z,6.60
2018-02-17T13:57:56.821Z,6.60
2018-02-17T14:00:24.366Z,6.60
2018-02-17T14:02:51.862Z,6.70
2018-02-17T14:05:19.403Z,6.80
2018-02-17T14:07:46.951Z,6.90
2018-02-17T14:10:14.471Z,7.00
2018-02-17T14:12:42.086Z,6.90
2018-02-17T14:15:09.598Z,7.00
2018-02-17T14:17:37.104Z,7.20
2018-02-17T14:20:04.618Z,6.70
2018-02-17T14:22:32.134Z,6.60
2018-02-17T14:24:59.653Z,6.80
2018-02-17T14:27:27.938Z,7.10
2018-02-17T14:29:55.438Z,7.00
2018-02-17T14:32:22.989Z,7.20
2018-02-17T14:34:50.520Z,7.30
2018-02-17T14:37:18.026Z,7.20
2018-02-17T14:39:45.559Z,6.90
2018-02-17T14:42:13.100Z,6.90
2018-02-17T14:44:40.628Z,6.80
2018-02-17T14:47:08.233Z,6.80
2018-02-17T14:49:35.770Z,6.70
2018-02-17T14:52:03.317Z,6.70
2018-02-17T14:54:31.611Z,6.60
2018-02-17T14:56:59.138Z,6.60
2018-02-17T14:59:26.655Z,6.60
2018-02-17T15:01:54.176Z,6.50
2018-02-17T15:04:22.487Z,6.60
2018-02-17T15:06:50.131Z,6.60
2018-02-17T15:09:17.635Z,6.40
2018-02-17T15:11:45.260Z,6.40
2018-02-17T15:14:12.807Z,6.40
2018-02-17T15:16:40.305Z,6.30
2018-02-17T15:19:07.846Z,6.30
2018-02-17T15:21:35.368Z,6.20
2018-02-17T15:24:03.687Z,5.90
2018-02-17T15:26:31.202Z,5.90
2018-02-17T15:28:59.557Z,5.70
2018-02-17T15:31:27.091Z,5.70
2018-02-17T15:33:54.636Z,5.80
2018-02-17T15:36:22.262Z,5.80
2018-02-17T15:38:50.587Z,5.90
2018-02-17T15:41:18.220Z,5.90
2018-02-17T15:43:45.739Z,6.00
2018-02-17T15:46:13.297Z,5.90
2018-02-17T15:48:40.810Z,5.80
2018-02-17T15:51:08.315Z,5.80
2018-02-17T15:53:35.918Z,6.00
2018-02-17T15:56:04.234Z,6.10
2018-02-17T15:58:31.827Z,6.10
2018-02-17T16:00:59.337Z,6.00
2018-02-17T16:03:26.844Z,5.90
2018-02-17T16:05:54.390Z,5.90
2018-02-17T16:08:21.903Z,5.80
2018-02-17T16:10:49.517Z,5.70
2018-02-17T16:13:17.052Z,5.60
2018-02-17T16:15:44.579Z,5.60
2018-02-17T16:18:12.129Z,5.50
2018-02-17T16:20:40.495Z,5.60
2018-02-17T16:23:08.036Z,5.60
2018-02-17T16:25:35.539Z,5.60
2018-02-17T16:28:03.050Z,5.60
2018-02-17T16:30:30.572Z,5.60
2018-02-17T16:32:58.066Z,5.80
2018-02-17T16:35:25.590Z,5.60
2018-02-17T16:37:53.124Z,5.60
2018-02-17T16:40:21.430Z,5.60
2018-02-17T16:42:49.040Z,5.60
2018-02-17T16:45:16.558Z,5.60
2018-02-17T16:47:44.119Z,5.60
2018-02-17T16:50:11.626Z,5.60
2018-02-17T16:52:39.345Z,5.80
2018-02-17T16:55:06.864Z,5.80
2018-02-17T16:57:35.145Z,5.90
2018-02-17T17:00:02.665Z,5.90
2018-02-17T17:02:30.195Z,5.80
2018-02-17T17:04:57.720Z,5.60
2018-02-17T17:07:26.047Z,5.70
2018-02-17T17:09:53.620Z,5.70
2018-02-17T17:12:21.113Z,5.40
2018-02-17T17:14:49.393Z,5.40
2018-02-17T17:17:17.701Z,5.30
2018-02-17T17:19:45.252Z,5.30
2018-02-17T17:22:12.918Z,5.40
2018-02-17T17:24:40.435Z,5.40
2018-02-17T17:27:07.947Z,5.50
2018-02-17T17:29:35.505Z,5.30
2018-02-17T17:32:03.102Z,5.30
2018-02-17T17:34:30.640Z,5.30
2018-02-17T17:36:58.147Z,5.20
2018-02-17T17:39:26.457Z,5.50
2018-02-17T17:41:53.977Z,5.40
2018-02-17T17:44:22.260Z,5.50
2018-02-17T17:46:49.799Z,5.50
2018-02-17T17:49:17.313Z,5.30
2018-02-17T17:51:44.836Z,5.20
2018-02-17T17:54:12.529Z,5.30
2018-02-17T17:56:40.161Z,5.30
2018-02-17T17:59:07.707Z,5.40
2018-02-17T18:01:35.219Z,5.30
2018-02-17T18:04:02.771Z,5.30
2018-02-17T18:06:31.088Z,5.40
2018-02-17T18:08:58.612Z,5.40
2018-02-17T18:11:26.129Z,5.40
2018-02-17T18:13:53.666Z,5.40
2018-02-17T18:16:21.225Z,5.20
2018-02-17T18:18:48.860Z,5.30
2018-02-17T18:21:16.406Z,5.50
2018-02-17T18:23:43.944Z,5.50
2018-02-17T18:26:11.460Z,5.60
2018-02-17T18:28:39.092Z,5.70
2018-02-17T18:31:06.624Z,5.70
2018-02-17T18:33:34.191Z,5.70
2018-02-17T18:36:01.703Z,5.60
2018-02-17T18:38:29.289Z,5.60
2018-02-17T18:40:57.756Z,5.60
2018-02-17T18:43:25.323Z,5.60
2018-02-17T18:45:52.898Z,5.70
2018-02-17T18:48:21.188Z,5.50
2018-02-17T18:50:49.471Z,5.40
2018-02-17T18:53:16.988Z,5.40
2018-02-17T18:55:44.530Z,5.40
2018-02-17T18:58:12.057Z,5.30
2018-02-17T19:00:39.599Z,5.30
2018-02-17T19:03:07.184Z,5.30
2018-02-17T19:05:34.735Z,5.50
2018-02-17T19:08:02.274Z,5.50
2018-02-17T19:10:30.580Z,5.60
2018-02-17T19:12:58.120Z,5.60
2018-02-17T19:15:25.747Z,5.50
2018-02-17T19:17:53.345Z,5.50
2018-02-17T19:20:21.702Z,5.50
2018-02-17T19:22:49.345Z,5.50
2018-02-17T19:25:16.941Z,5.50
2018-02-17T19:27:45.292Z,5.30
2018-02-17T19:30:13.774Z,5.20
2018-02-17T19:32:41.352Z,5.20
2018-02-17T19:35:09.766Z,5.30
2018-02-17T19:37:39.106Z,5.30
2018-02-17T19:40:07.963Z,5.40
2018-02-17T19:42:35.523Z,5.30
2018-02-17T19:45:03.120Z,5.20
2018-02-17T19:47:30.659Z,5.30
2018-02-17T19:49:58.197Z,5.30
2018-02-17T19:52:25.761Z,5.30
2018-02-17T19:54:53.384Z,5.30
2018-02-17T19:57:21.752Z,5.30
2018-02-17T19:59:49.276Z,5.30
2018-02-17T20:02:16.802Z,5.30
2018-02-17T20:04:45.159Z,5.20
2018-02-17T20:07:13.436Z,5.20
2018-02-17T20:09:40.991Z,5.10
2018-02-17T20:12:08.507Z,5.20
2018-02-17T20:14:36.025Z,5.10
2018-02-17T20:17:03.520Z,5.20
2018-02-17T20:19:31.097Z,5.30
2018-02-17T20:21:58.618Z,5.40
2018-02-17T20:24:26.152Z,5.60
2018-02-17T20:26:54.423Z,5.40
2018-02-17T20:29:23.068Z,5.30
2018-02-17T20:31:50.636Z,5.30
2018-02-17T20:34:18.171Z,5.10
2018-02-17T20:36:45.725Z,5.10
2018-02-17T20:39:13.263Z,5.00
2018-02-17T20:41:40.806Z,5.00
2018-02-17T20:44:11.662Z,5.00
2018-02-17T20:46:40.594Z,5.00
2018-02-17T20:49:08.448Z,4.90
2018-02-17T20:51:35.948Z,4.90
2018-02-17T20:54:03.602Z,5.00
2018-02-17T20:56:33.334Z,4.90
2018-02-17T20:59:00.929Z,5.00
2018-02-17T21:01:28.458Z,4.70
2018-02-17T21:03:56.875Z,4.90
2018-02-17T21:06:24.445Z,4.90
2018-02-17T21:08:52.014Z,5.00
2018-02-17T21:11:19.625Z,5.10
2018-02-17T21:13:47.942Z,5.00
2018-02-17T21:16:15.486Z,4.90
2018-02-17T21:18:43.053Z,4.90
2018-02-17T21:21:10.784Z,5.10
2018-02-17T21:23:39.119Z,5.10
2018-02-17T21:26:06.622Z,5.10
2018-02-17T21:28:34.127Z,5.20
2018-02-17T21:31:01.684Z,5.20
2018-02-17T21:33:29.213Z,5.20
2018-02-17T21:35:57.166Z,5.00
2018-02-17T21:38:25.260Z,4.80
2018-02-17T21:40:52.806Z,4.80
2018-02-17T21:43:21.121Z,4.70
2018-02-17T21:45:48.689Z,4.70
2018-02-17T21:48:16.225Z,4.70
2018-02-17T21:50:43.746Z,4.70
2018-02-17T21:53:11.566Z,4.80
2018-02-17T21:55:39.119Z,4.60
2018-02-17T21:58:06.631Z,4.60
2018-02-17T22:00:34.146Z,4.60
2018-02-17T22:03:01.652Z,4.60
2018-02-17T22:05:29.197Z,4.60
2018-02-17T22:07:56.750Z,4.60
2018-02-17T22:10:24.284Z,4.70
2018-02-17T22:12:51.813Z,4.70
2018-02-17T22:15:19.475Z,4.80
2018-02-17T22:17:47.016Z,4.90
2018-02-17T22:20:15.307Z,5.10
2018-02-17T22:22:43.606Z,4.90
2018-02-17T22:25:11.127Z,4.90
2018-02-17T22:27:38.659Z,4.80
2018-02-17T22:30:06.206Z,4.90
2018-02-17T22:32:33.737Z,4.80
2018-02-17T22:35:01.277Z,4.70
2018-02-17T22:37:29.560Z,4.80
2018-02-17T22:39:57.850Z,4.70
2018-02-17T22:42:25.378Z,4.70
2018-02-17T22:44:52.892Z,4.60
2018-02-17T22:47:20.415Z,4.80
2018-02-17T22:49:48.722Z,4.70
2018-02-17T22:52:16.254Z,4.60
2018-02-17T22:54:43.813Z,4.60
2018-02-17T22:57:12.220Z,4.60
2018-02-17T22:59:39.756Z,4.60
2018-02-17T23:02:08.212Z,4.40
2018-02-17T23:04:35.743Z,4.40
2018-02-17T23:07:03.319Z,4.40
2018-02-17T23:09:30.849Z,4.40
2018-02-17T23:11:58.361Z,4.30
2018-02-17T23:14:25.859Z,4.30
2018-02-17T23:16:53.374Z,4.30
2018-02-17T23:19:20.874Z,4.30
2018-02-17T23:21:48.375Z,4.30
2018-02-17T23:24:15.928Z,4.30
2018-02-17T23:26:43.440Z,4.40
2018-02-17T23:29:10.955Z,4.60
2018-02-17T23:31:38.545Z,4.60
2018-02-17T23:34:06.813Z,4.50
2018-02-17T23:36:35.100Z,4.60
2018-02-17T23:39:03.464Z,4.60
2018-02-17T23:41:30.974Z,4.60
2018-02-17T23:43:58.565Z,4.50
2018-02-17T23:46:26.121Z,4.40
2018-02-17T23:48:53.640Z,4.30
2018-02-17T23:51:21.204Z,4.30
2018-02-17T23:53:48.809Z,4.40
2018-02-17T23:56:16.356Z,4.60
2018-02-17T23:58:44.228Z,4.60
